sensor_id;sensor_type;location;lat;lon;timestamp;pressure;altitude;pressure_sealevel;temperature;humidity
58973;BME280;44750;52.040;7.472;2023-02-02T00:04:34;100786.97;;;5.68;28.08
58973;BME280;44750;52.040;7.472;2023-02-02T00:09:34;100771.69;;;5.57;29.47
58973;BME280;44750;52.040;7.472;2023-02-02T00:14:35;100770.56;;;5.60;29.81
58973;BME280;44750;52.040;7.472;2023-02-02T00:19:35;100770.56;;;5.60;31.58
58973;BME280;44750;52.040;7.472;2023-02-02T00:24:35;100751.91;;;5.58;33.59
58973;BME280;44750;52.040;7.472;2023-02-02T00:29:35;100731.75;;;5.52;35.77
58973;BME280;44750;52.040;7.472;2023-02-02T00:34:36;100727.59;;;5.60;38.10
58973;BME280;44750;52.040;7.472;2023-02-02T00:39:36;100686.38;;;5.49;41.94
58973;BME280;44750;52.040;7.472;2023-02-02T00:44:36;100676.84;;;5.57;45.31
58973;BME280;44750;52.040;7.472;2023-02-02T00:49:36;100640.72;;;5.49;48.76
58973;BME280;44750;52.040;7.472;2023-02-02T00:54:36;100643.16;;;5.52;51.62
58973;BME280;44750;52.040;7.472;2023-02-02T00:59:37;100620.09;;;5.50;53.90
58973;BME280;44750;52.040;7.472;2023-02-02T01:04:37;100604.84;;;5.50;54.98
58973;BME280;44750;52.040;7.472;2023-02-02T01:09:38;100598.00;;;5.46;55.77
58973;BME280;44750;52.040;7.472;2023-02-02T01:14:38;100590.94;;;5.45;54.52
58973;BME280;44750;52.040;7.472;2023-02-02T01:19:38;100599.47;;;5.50;53.25
58973;BME280;44750;52.040;7.472;2023-02-02T01:24:38;100631.19;;;5.57;51.51
58973;BME280;44750;52.040;7.472;2023-02-02T01:29:39;100647.78;;;5.62;49.20
58973;BME280;44750;52.040;7.472;2023-02-02T01:34:39;100661.22;;;5.62;46.99
58973;BME280;44750;52.040;7.472;2023-02-02T01:39:39;100697.84;;;5.74;43.59
58973;BME280;44750;52.040;7.472;2023-02-02T01:49:54;100729.59;;;5.80;37.69
58973;BME280;44750;52.040;7.472;2023-02-02T01:55:01;100765.00;;;5.85;33.19
58973;BME280;44750;52.040;7.472;2023-02-02T02:00:06;100804.81;;;5.92;29.04
58973;BME280;44750;52.040;7.472;2023-02-02T02:05:08;100821.19;;;5.89;25.13
58973;BME280;44750;52.040;7.472;2023-02-02T02:10:08;100849.91;;;5.99;21.57
58973;BME280;44750;52.040;7.472;2023-02-02T02:15:09;100868.84;;;5.98;19.08
58973;BME280;44750;52.040;7.472;2023-02-02T02:36:02;100946.44;;;6.02;9.39
58973;BME280;44750;52.040;7.472;2023-02-02T02:41:09;100952.16;;;5.98;7.31
58973;BME280;44750;52.040;7.472;2023-02-02T02:46:11;100944.84;;;6.00;5.87
58973;BME280;44750;52.040;7.472;2023-02-02T02:51:44;100956.31;;;6.02;3.48
58973;BME280;44750;52.040;7.472;2023-02-02T02:57:40;100970.13;;;6.09;0.75
58973;BME280;44750;52.040;7.472;2023-02-02T03:02:39;100990.31;;;6.14;0.00
58973;BME280;44750;52.040;7.472;2023-02-02T03:07:48;100989.34;;;6.15;0.00
58973;BME280;44750;52.040;7.472;2023-02-02T03:12:50;101000.72;;;6.19;0.00
58973;BME280;44750;52.040;7.472;2023-02-02T03:17:52;101003.16;;;6.22;0.00
58973;BME280;44750;52.040;7.472;2023-02-02T03:22:52;101002.94;;;6.25;0.00
58973;BME280;44750;52.040;7.472;2023-02-02T03:27:52;101019.69;;;6.29;0.00
58973;BME280;44750;52.040;7.472;2023-02-02T03:32:53;101031.91;;;6.33;0.00
58973;BME280;44750;52.040;7.472;2023-02-02T03:37:53;101049.44;;;6.39;0.00
58973;BME280;44750;52.040;7.472;2023-02-02T03:42:54;101062.38;;;6.45;0.00
58973;BME280;44750;52.040;7.472;2023-02-02T03:47:54;101069.47;;;6.46;0.00
58973;BME280;44750;52.040;7.472;2023-02-02T03:52:54;101067.44;;;6.49;0.00
58973;BME280;44750;52.040;7.472;2023-02-02T03:57:54;101068.63;;;6.45;0.00
58973;BME280;44750;52.040;7.472;2023-02-02T04:02:55;101069.16;;;6.50;0.00
58973;BME280;44750;52.040;7.472;2023-02-02T04:07:55;101082.81;;;6.47;0.00
58973;BME280;44750;52.040;7.472;2023-02-02T04:12:55;101094.53;;;6.46;0.00
58973;BME280;44750;52.040;7.472;2023-02-02T04:17:56;101097.22;;;6.46;0.00
58973;BME280;44750;52.040;7.472;2023-02-02T04:22:56;101113.28;;;6.48;0.00
58973;BME280;44750;52.040;7.472;2023-02-02T04:27:56;101124.13;;;6.46;0.00
58973;BME280;44750;52.040;7.472;2023-02-02T04:32:56;101133.19;;;6.45;0.00
58973;BME280;44750;52.040;7.472;2023-02-02T04:37:57;101152.13;;;6.44;0.00
58973;BME280;44750;52.040;7.472;2023-02-02T04:42:57;101161.28;;;6.41;0.00
58973;BME280;44750;52.040;7.472;2023-02-02T04:47:57;101156.09;;;6.38;0.00
58973;BME280;44750;52.040;7.472;2023-02-02T04:52:57;101172.75;;;6.43;0.00
58973;BME280;44750;52.040;7.472;2023-02-02T04:57:57;101179.03;;;6.44;0.00
58973;BME280;44750;52.040;7.472;2023-02-02T05:02:59;101191.25;;;6.48;0.00
58973;BME280;44750;52.040;7.472;2023-02-02T05:07:59;101204.59;;;6.49;0.00
58973;BME280;44750;52.040;7.472;2023-02-02T05:13:00;101210.66;;;6.40;0.00
58973;BME280;44750;52.040;7.472;2023-02-02T05:18:00;101223.75;;;6.45;0.00
58973;BME280;44750;52.040;7.472;2023-02-02T05:23:00;101242.56;;;6.45;0.00
58973;BME280;44750;52.040;7.472;2023-02-02T05:28:00;101239.34;;;6.40;0.00
58973;BME280;44750;52.040;7.472;2023-02-02T05:33:01;101253.69;;;6.40;0.00
58973;BME280;44750;52.040;7.472;2023-02-02T05:38:01;101260.88;;;6.40;0.00
58973;BME280;44750;52.040;7.472;2023-02-02T05:43:01;101276.91;;;6.41;0.00
58973;BME280;44750;52.040;7.472;2023-02-02T05:48:02;101284.97;;;6.41;0.00
58973;BME280;44750;52.040;7.472;2023-02-02T05:53:02;101288.63;;;6.40;0.00
58973;BME280;44750;52.040;7.472;2023-02-02T05:58:02;101304.00;;;6.38;0.00
58973;BME280;44750;52.040;7.472;2023-02-02T06:03:03;101312.97;;;6.39;0.00
58973;BME280;44750;52.040;7.472;2023-02-02T06:08:03;101331.31;;;6.45;0.00
58973;BME280;44750;52.040;7.472;2023-02-02T06:13:03;101337.34;;;6.48;0.00
58973;BME280;44750;52.040;7.472;2023-02-02T06:18:04;101348.75;;;6.52;0.00
58973;BME280;44750;52.040;7.472;2023-02-02T06:23:05;101351.44;;;6.52;0.00
58973;BME280;44750;52.040;7.472;2023-02-02T06:28:05;101368.94;;;6.58;0.00
58973;BME280;44750;52.040;7.472;2023-02-02T06:33:05;101378.88;;;6.57;0.00
58973;BME280;44750;52.040;7.472;2023-02-02T06:38:06;101385.09;;;6.58;0.00
58973;BME280;44750;52.040;7.472;2023-02-02T06:43:06;101402.72;;;6.62;0.00
58973;BME280;44750;52.040;7.472;2023-02-02T06:48:06;101397.34;;;6.62;0.00
58973;BME280;44750;52.040;7.472;2023-02-02T06:53:06;101404.47;;;6.63;0.00
58973;BME280;44750;52.040;7.472;2023-02-02T06:58:07;101370.81;;;6.31;0.00
58973;BME280;44750;52.040;7.472;2023-02-02T07:03:07;101389.66;;;6.18;0.00
58973;BME280;44750;52.040;7.472;2023-02-02T07:08:07;101428.81;;;6.23;0.00
58973;BME280;44750;52.040;7.472;2023-02-02T07:13:08;101457.84;;;6.17;0.00
58973;BME280;44750;52.040;7.472;2023-02-02T07:18:08;101437.13;;;5.92;0.00
58973;BME280;44750;52.040;7.472;2023-02-02T07:23:09;101444.41;;;5.77;0.00
58973;BME280;44750;52.040;7.472;2023-02-02T07:28:09;101469.31;;;5.66;0.00
58973;BME280;44750;52.040;7.472;2023-02-02T07:33:09;101484.19;;;5.58;0.00
58973;BME280;44750;52.040;7.472;2023-02-02T07:38:09;101485.41;;;5.39;0.00
58973;BME280;44750;52.040;7.472;2023-02-02T07:43:10;101504.97;;;5.41;0.00
58973;BME280;44750;52.040;7.472;2023-02-02T07:48:10;101527.41;;;5.40;0.00
58973;BME280;44750;52.040;7.472;2023-02-02T07:53:10;101540.06;;;5.38;0.00
58973;BME280;44750;52.040;7.472;2023-02-02T07:58:10;101557.59;;;5.44;0.00
58973;BME280;44750;52.040;7.472;2023-02-02T08:03:11;101574.38;;;5.47;0.00
58973;BME280;44750;52.040;7.472;2023-02-02T08:08:11;101580.63;;;5.48;0.00
58973;BME280;44750;52.040;7.472;2023-02-02T08:13:11;101611.09;;;5.61;0.00
58973;BME280;44750;52.040;7.472;2023-02-02T08:18:11;101634.38;;;5.75;0.00
58973;BME280;44750;52.040;7.472;2023-02-02T08:23:12;101640.44;;;5.79;0.00
58973;BME280;44750;52.040;7.472;2023-02-02T08:28:12;101657.00;;;5.85;0.00
58973;BME280;44750;52.040;7.472;2023-02-02T08:33:12;101651.81;;;5.82;0.00
58973;BME280;44750;52.040;7.472;2023-02-02T08:38:14;101671.19;;;5.88;0.00
58973;BME280;44750;52.040;7.472;2023-02-02T08:43:14;101661.81;;;5.80;0.00
58973;BME280;44750;52.040;7.472;2023-02-02T08:48:14;101685.53;;;5.88;0.00
58973;BME280;44750;52.040;7.472;2023-02-02T08:53:14;101684.75;;;5.86;0.00
58973;BME280;44750;52.040;7.472;2023-02-02T08:58:15;101704.34;;;6.02;0.00
58973;BME280;44750;52.040;7.472;2023-02-02T09:03:15;101713.94;;;6.07;0.00
58973;BME280;44750;52.040;7.472;2023-02-02T09:08:15;101706.16;;;6.02;0.00
58973;BME280;44750;52.040;7.472;2023-02-02T09:13:16;101684.06;;;5.82;0.00
58973;BME280;44750;52.040;7.472;2023-02-02T09:18:16;101718.63;;;6.03;0.00
58973;BME280;44750;52.040;7.472;2023-02-02T09:23:16;101721.28;;;6.17;0.00
58973;BME280;44750;52.040;7.472;2023-02-02T09:28:16;101741.72;;;6.34;0.00
58973;BME280;44750;52.040;7.472;2023-02-02T09:33:17;101751.75;;;6.45;0.00
58973;BME280;44750;52.040;7.472;2023-02-02T09:38:17;101746.19;;;6.48;0.00
58973;BME280;44750;52.040;7.472;2023-02-02T09:48:49;101736.94;;;6.52;0.00
58973;BME280;44750;52.040;7.472;2023-02-02T09:53:58;101725.31;;;6.52;0.00
58973;BME280;44750;52.040;7.472;2023-02-02T09:59:02;101730.81;;;6.50;0.00
58973;BME280;44750;52.040;7.472;2023-02-02T10:04:28;101724.25;;;6.55;0.00
58973;BME280;44750;52.040;7.472;2023-02-02T10:14:33;101713.78;;;6.50;0.00
58973;BME280;44750;52.040;7.472;2023-02-02T10:19:37;101708.13;;;6.55;0.00
58973;BME280;44750;52.040;7.472;2023-02-02T10:24:38;101688.06;;;6.46;0.00
58973;BME280;44750;52.040;7.472;2023-02-02T10:30:00;101719.97;;;6.65;0.00
58973;BME280;44750;52.040;7.472;2023-02-02T10:46:02;101689.84;;;6.60;0.00
58973;BME280;44750;52.040;7.472;2023-02-02T10:51:13;101678.88;;;6.63;0.00
58973;BME280;44750;52.040;7.472;2023-02-02T10:56:19;101658.06;;;6.52;0.00
58973;BME280;44750;52.040;7.472;2023-02-02T11:01:21;101648.94;;;6.55;0.00
58973;BME280;44750;52.040;7.472;2023-02-02T11:06:21;101633.75;;;6.53;0.00
58973;BME280;44750;52.040;7.472;2023-02-02T11:11:28;101635.16;;;6.59;0.00
58973;BME280;44750;52.040;7.472;2023-02-02T11:16:32;101635.81;;;6.63;0.00
58973;BME280;44750;52.040;7.472;2023-02-02T11:21:33;101632.63;;;6.71;0.00
58973;BME280;44750;52.040;7.472;2023-02-02T11:26:44;101603.09;;;6.69;0.00
58973;BME280;44750;52.040;7.472;2023-02-02T11:31:45;101590.81;;;6.65;0.00
58973;BME280;44750;52.040;7.472;2023-02-02T11:37:24;101585.03;;;6.71;0.00
58973;BME280;44750;52.040;7.472;2023-02-02T11:42:25;101567.59;;;6.64;0.00
58973;BME280;44750;52.040;7.472;2023-02-02T11:47:31;101579.44;;;6.74;0.00
58973;BME280;44750;52.040;7.472;2023-02-02T11:52:32;101552.50;;;6.74;0.00
58973;BME280;44750;52.040;7.472;2023-02-02T11:57:32;101550.38;;;6.79;0.00
58973;BME280;44750;52.040;7.472;2023-02-02T12:02:33;101518.97;;;6.80;0.00
58973;BME280;44750;52.040;7.472;2023-02-02T12:07:33;101478.06;;;6.62;0.00
58973;BME280;44750;52.040;7.472;2023-02-02T12:17:39;101476.44;;;6.72;0.00
58973;BME280;44750;52.040;7.472;2023-02-02T12:33:42;101453.41;;;6.68;0.00
58973;BME280;44750;52.040;7.472;2023-02-02T12:44:32;101399.72;;;6.53;0.00
58973;BME280;44750;52.040;7.472;2023-02-02T12:50:01;101402.97;;;6.59;0.00
58973;BME280;44750;52.040;7.472;2023-02-02T12:55:13;101389.09;;;6.52;0.00
58973;BME280;44750;52.040;7.472;2023-02-02T13:10:52;101402.84;;;6.73;0.00
58973;BME280;44750;52.040;7.472;2023-02-02T13:15:59;101409.19;;;6.72;0.00
58973;BME280;44750;52.040;7.472;2023-02-02T13:21:10;101381.84;;;6.65;0.00
58973;BME280;44750;52.040;7.472;2023-02-02T13:26:18;101382.69;;;6.66;0.00
58973;BME280;44750;52.040;7.472;2023-02-02T13:31:42;101390.03;;;6.64;0.00
58973;BME280;44750;52.040;7.472;2023-02-02T13:36:50;101382.84;;;6.51;0.00
58973;BME280;44750;52.040;7.472;2023-02-02T13:41:52;101398.44;;;6.59;0.00
58973;BME280;44750;52.040;7.472;2023-02-02T13:47:10;101399.94;;;6.63;0.00
58973;BME280;44750;52.040;7.472;2023-02-02T13:52:31;101394.00;;;6.58;0.00
58973;BME280;44750;52.040;7.472;2023-02-02T14:03:32;101409.19;;;6.59;0.00
58973;BME280;44750;52.040;7.472;2023-02-02T14:08:34;101416.94;;;6.64;0.00
58973;BME280;44750;52.040;7.472;2023-02-02T14:13:43;101403.81;;;6.59;0.00
58973;BME280;44750;52.040;7.472;2023-02-02T14:28:49;101476.94;;;6.90;0.00
58973;BME280;44750;52.040;7.472;2023-02-02T14:33:49;101499.66;;;6.99;0.00
58973;BME280;44750;52.040;7.472;2023-02-02T14:38:57;101519.56;;;7.09;0.00
58973;BME280;44750;52.040;7.472;2023-02-02T14:44:04;101537.63;;;7.20;0.00
58973;BME280;44750;52.040;7.472;2023-02-02T14:49:10;101573.13;;;7.38;0.00
58973;BME280;44750;52.040;7.472;2023-02-02T14:54:19;101611.25;;;7.58;0.00
58973;BME280;44750;52.040;7.472;2023-02-02T14:59:36;101612.97;;;7.59;0.00
58973;BME280;44750;52.040;7.472;2023-02-02T15:04:37;101633.44;;;7.61;0.00
58973;BME280;44750;52.040;7.472;2023-02-02T15:09:38;101646.38;;;7.56;0.00
58973;BME280;44750;52.040;7.472;2023-02-02T15:25:36;101738.19;;;7.66;0.00
58973;BME280;44750;52.040;7.472;2023-02-02T15:30:42;101754.38;;;7.66;0.00
58973;BME280;44750;52.040;7.472;2023-02-02T15:35:43;101766.34;;;7.62;0.00
58973;BME280;44750;52.040;7.472;2023-02-02T15:40:44;101805.44;;;7.67;0.00
58973;BME280;44750;52.040;7.472;2023-02-02T15:45:47;101827.69;;;7.71;0.00
58973;BME280;44750;52.040;7.472;2023-02-02T15:50:49;101845.13;;;7.65;0.00
58973;BME280;44750;52.040;7.472;2023-02-02T15:55:51;101868.22;;;7.69;0.00
58973;BME280;44750;52.040;7.472;2023-02-02T16:01:11;101871.00;;;7.68;0.00
58973;BME280;44750;52.040;7.472;2023-02-02T16:06:13;101897.97;;;7.68;0.00
58973;BME280;44750;52.040;7.472;2023-02-02T16:11:15;101918.53;;;7.69;0.00
58973;BME280;44750;52.040;7.472;2023-02-02T16:16:22;101935.59;;;7.69;0.00
58973;BME280;44750;52.040;7.472;2023-02-02T16:21:23;101945.50;;;7.69;0.00
58973;BME280;44750;52.040;7.472;2023-02-02T16:26:27;101969.75;;;7.69;0.00
58973;BME280;44750;52.040;7.472;2023-02-02T16:31:29;101976.31;;;7.65;0.00
58973;BME280;44750;52.040;7.472;2023-02-02T16:36:29;102003.81;;;7.70;0.00
58973;BME280;44750;52.040;7.472;2023-02-02T16:41:31;102025.19;;;7.73;0.00
58973;BME280;44750;52.040;7.472;2023-02-02T16:46:44;102056.38;;;7.77;0.00
58973;BME280;44750;52.040;7.472;2023-02-02T16:51:48;102056.56;;;7.74;0.00
58973;BME280;44750;52.040;7.472;2023-02-02T16:57:05;102071.78;;;7.75;0.00
58973;BME280;44750;52.040;7.472;2023-02-02T17:02:26;102079.75;;;7.77;0.00
58973;BME280;44750;52.040;7.472;2023-02-02T17:07:28;102094.41;;;7.73;0.00
58973;BME280;44750;52.040;7.472;2023-02-02T17:12:30;102117.38;;;7.78;0.00
58973;BME280;44750;52.040;7.472;2023-02-02T17:17:30;102125.28;;;7.81;0.00
58973;BME280;44750;52.040;7.472;2023-02-02T17:22:31;102129.78;;;7.81;0.00
58973;BME280;44750;52.040;7.472;2023-02-02T17:27:36;102144.91;;;7.83;0.00
58973;BME280;44750;52.040;7.472;2023-02-02T17:32:36;102147.50;;;7.85;0.00
58973;BME280;44750;52.040;7.472;2023-02-02T17:37:37;102154.72;;;7.84;0.00
58973;BME280;44750;52.040;7.472;2023-02-02T17:42:37;102158.09;;;7.88;0.00
58973;BME280;44750;52.040;7.472;2023-02-02T17:47:37;102173.59;;;7.84;0.00
58973;BME280;44750;52.040;7.472;2023-02-02T17:52:37;102167.53;;;7.81;0.00
58973;BME280;44750;52.040;7.472;2023-02-02T17:57:38;102169.28;;;7.82;0.00
58973;BME280;44750;52.040;7.472;2023-02-02T18:02:38;102179.22;;;7.81;0.00
58973;BME280;44750;52.040;7.472;2023-02-02T18:07:38;102190.00;;;7.81;0.00
58973;BME280;44750;52.040;7.472;2023-02-02T18:12:39;102184.78;;;7.78;0.00
58973;BME280;44750;52.040;7.472;2023-02-02T18:17:41;102185.66;;;7.79;0.00
58973;BME280;44750;52.040;7.472;2023-02-02T18:22:42;102205.28;;;7.81;0.00
58973;BME280;44750;52.040;7.472;2023-02-02T18:27:42;102205.22;;;7.82;0.00
58973;BME280;44750;52.040;7.472;2023-02-02T18:32:42;102207.69;;;7.85;0.00
58973;BME280;44750;52.040;7.472;2023-02-02T18:37:43;102200.94;;;7.78;0.00
58973;BME280;44750;52.040;7.472;2023-02-02T18:42:43;102222.72;;;7.90;0.00
58973;BME280;44750;52.040;7.472;2023-02-02T18:47:43;102233.38;;;7.91;0.00
58973;BME280;44750;52.040;7.472;2023-02-02T18:52:44;102248.50;;;7.94;0.00
58973;BME280;44750;52.040;7.472;2023-02-02T18:57:44;102257.06;;;8.00;0.00
58973;BME280;44750;52.040;7.472;2023-02-02T19:02:44;102253.69;;;7.97;0.00
58973;BME280;44750;52.040;7.472;2023-02-02T19:07:44;102260.63;;;8.01;0.00
58973;BME280;44750;52.040;7.472;2023-02-02T19:13:08;102268.63;;;8.02;0.00
58973;BME280;44750;52.040;7.472;2023-02-02T19:18:14;102259.28;;;7.94;0.00
58973;BME280;44750;52.040;7.472;2023-02-02T19:23:17;102273.16;;;8.02;0.00
58973;BME280;44750;52.040;7.472;2023-02-02T19:28:22;102296.16;;;8.08;0.00
58973;BME280;44750;52.040;7.472;2023-02-02T19:33:36;102288.94;;;8.08;0.00
58973;BME280;44750;52.040;7.472;2023-02-02T19:38:37;102290.47;;;8.12;0.00
58973;BME280;44750;52.040;7.472;2023-02-02T19:43:37;102288.00;;;8.09;0.00
58973;BME280;44750;52.040;7.472;2023-02-02T19:48:37;102295.09;;;8.10;0.00
58973;BME280;44750;52.040;7.472;2023-02-02T19:53:38;102301.06;;;8.15;0.00
58973;BME280;44750;52.040;7.472;2023-02-02T19:58:38;102307.34;;;8.16;0.00
58973;BME280;44750;52.040;7.472;2023-02-02T20:03:40;102290.28;;;8.15;0.00
58973;BME280;44750;52.040;7.472;2023-02-02T20:08:42;102289.31;;;8.16;0.00
58973;BME280;44750;52.040;7.472;2023-02-02T20:13:44;102290.75;;;8.22;0.00
58973;BME280;44750;52.040;7.472;2023-02-02T20:18:49;102302.41;;;8.23;0.00
58973;BME280;44750;52.040;7.472;2023-02-02T20:23:50;102291.63;;;8.23;0.00
58973;BME280;44750;52.040;7.472;2023-02-02T20:28:53;102279.00;;;8.23;0.00
58973;BME280;44750;52.040;7.472;2023-02-02T20:33:54;102262.06;;;8.21;0.00
58973;BME280;44750;52.040;7.472;2023-02-02T20:38:58;102260.97;;;8.24;0.00
58973;BME280;44750;52.040;7.472;2023-02-02T20:43:59;102248.47;;;8.23;0.00
58973;BME280;44750;52.040;7.472;2023-02-02T20:48:59;102244.72;;;8.25;0.00
58973;BME280;44750;52.040;7.472;2023-02-02T20:53:59;102235.16;;;8.19;0.00
58973;BME280;44750;52.040;7.472;2023-02-02T20:59:00;102228.81;;;8.20;0.00
58973;BME280;44750;52.040;7.472;2023-02-02T21:04:00;102216.50;;;8.16;0.00
58973;BME280;44750;52.040;7.472;2023-02-02T21:09:01;102249.13;;;8.26;0.00
58973;BME280;44750;52.040;7.472;2023-02-02T21:14:01;102236.69;;;8.24;0.00
58973;BME280;44750;52.040;7.472;2023-02-02T21:19:01;102225.16;;;8.22;0.00
58973;BME280;44750;52.040;7.472;2023-02-02T21:24:02;102215.09;;;8.24;0.00
58973;BME280;44750;52.040;7.472;2023-02-02T21:29:02;102224.75;;;8.28;0.00
58973;BME280;44750;52.040;7.472;2023-02-02T21:34:03;102199.69;;;8.26;0.00
58973;BME280;44750;52.040;7.472;2023-02-02T21:39:33;102197.56;;;8.31;0.00
58973;BME280;44750;52.040;7.472;2023-02-02T21:44:36;102184.94;;;8.31;0.00
58973;BME280;44750;52.040;7.472;2023-02-02T21:49:38;102175.97;;;8.31;0.00
58973;BME280;44750;52.040;7.472;2023-02-02T21:54:39;102182.69;;;8.38;0.00
58973;BME280;44750;52.040;7.472;2023-02-02T21:59:40;102172.88;;;8.37;0.00
58973;BME280;44750;52.040;7.472;2023-02-02T22:04:40;102140.69;;;8.34;0.00
58973;BME280;44750;52.040;7.472;2023-02-02T22:09:42;102144.16;;;8.36;0.00
58973;BME280;44750;52.040;7.472;2023-02-02T22:14:44;102127.00;;;8.37;0.00
58973;BME280;44750;52.040;7.472;2023-02-02T22:19:45;102129.50;;;8.40;0.00
58973;BME280;44750;52.040;7.472;2023-02-02T22:24:51;102107.69;;;8.43;0.00
58973;BME280;44750;52.040;7.472;2023-02-02T22:29:59;102081.50;;;8.45;0.00
58973;BME280;44750;52.040;7.472;2023-02-02T22:34:59;102060.09;;;8.42;0.00
58973;BME280;44750;52.040;7.472;2023-02-02T22:40:00;102042.19;;;8.41;0.00
58973;BME280;44750;52.040;7.472;2023-02-02T22:45:00;102062.94;;;8.53;0.00
58973;BME280;44750;52.040;7.472;2023-02-02T22:50:00;102048.69;;;8.51;0.00
58973;BME280;44750;52.040;7.472;2023-02-02T22:55:01;102020.97;;;8.49;0.00
58973;BME280;44750;52.040;7.472;2023-02-02T23:00:03;101985.00;;;8.49;0.00
58973;BME280;44750;52.040;7.472;2023-02-02T23:05:05;101970.41;;;8.51;0.00
58973;BME280;44750;52.040;7.472;2023-02-02T23:10:06;101949.38;;;8.57;0.00
58973;BME280;44750;52.040;7.472;2023-02-02T23:15:07;101926.03;;;8.56;0.00
58973;BME280;44750;52.040;7.472;2023-02-02T23:20:10;101902.00;;;8.52;0.00
58973;BME280;44750;52.040;7.472;2023-02-02T23:25:11;101872.53;;;8.49;0.00
58973;BME280;44750;52.040;7.472;2023-02-02T23:30:13;101862.03;;;8.58;0.00
58973;BME280;44750;52.040;7.472;2023-02-02T23:35:13;101815.19;;;8.59;0.00
58973;BME280;44750;52.040;7.472;2023-02-02T23:40:14;101796.50;;;8.56;0.00
58973;BME280;44750;52.040;7.472;2023-02-02T23:45:14;101785.50;;;8.59;0.00
58973;BME280;44750;52.040;7.472;2023-02-02T23:50:14;101763.16;;;8.57;0.00
58973;BME280;44750;52.040;7.472;2023-02-02T23:55:14;101749.44;;;8.60;0.00
